Time;durP1;ratioP1;P1;durP2;ratioP2;P2;SDS_P1;SDS_P2;PMS_P1;PMS_P2;Temp;Humidity;BMP_temperature;BMP_pressure;BME280_temperature;BME280_humidity;BME280_pressure;Samples;Min_cycle;Max_cycle;Signal;HPM_P1;HPM_P2
2022/05/11 00:01:45;;;;;;;13.33;4.43;;;14.00;99.90;;;;;;5049422;28;20813;-86
2022/05/11 00:04:13;;;;;;;14.03;4.77;;;14.00;99.90;;;;;;5052236;28;20221;-87
2022/05/11 00:06:40;;;;;;;20.07;5.73;;;14.10;99.90;;;;;;5051816;28;20206;-85
2022/05/11 00:09:08;;;;;;;14.63;4.53;;;14.10;99.90;;;;;;5052734;28;20194;-85
2022/05/11 00:11:36;;;;;;;12.10;4.97;;;14.00;99.90;;;;;;5052051;28;20198;-87
2022/05/11 00:14:03;;;;;;;11.23;4.47;;;14.00;99.90;;;;;;5052561;28;20217;-86
2022/05/11 00:16:33;;;;;;;14.73;4.43;;;14.00;99.90;;;;;;5053171;28;20249;-86
2022/05/11 00:18:59;;;;;;;11.27;4.33;;;14.00;99.90;;;;;;5053615;28;20226;-86
2022/05/11 00:21:26;;;;;;;9.93;4.43;;;14.00;99.90;;;;;;5055381;28;20220;-83
2022/05/11 00:23:54;;;;;;;11.80;4.53;;;14.00;99.90;;;;;;5066736;28;20308;-85
2022/05/11 00:26:21;;;;;;;13.80;3.93;;;14.10;99.90;;;;;;5050733;28;20232;-85
2022/05/11 00:28:48;;;;;;;17.53;5.47;;;14.00;99.90;;;;;;5050966;28;20202;-84
2022/05/11 00:31:15;;;;;;;10.93;4.40;;;14.00;99.90;;;;;;5049971;28;20213;-82
2022/05/11 00:33:43;;;;;;;13.40;4.17;;;14.00;99.90;;;;;;5050887;28;20539;-83
2022/05/11 00:36:11;;;;;;;13.43;4.03;;;14.00;99.90;;;;;;5049840;28;20704;-83
2022/05/11 00:38:38;;;;;;;15.07;4.70;;;14.00;99.90;;;;;;5050752;28;20293;-83
2022/05/11 00:41:05;;;;;;;14.80;4.60;;;14.00;99.90;;;;;;5050396;28;20321;-84
2022/05/11 00:43:36;;;;;;;11.50;4.40;;;14.00;99.90;;;;;;5050509;28;20206;-81
2022/05/11 00:46:14;;;;;;;12.67;3.67;;;14.00;99.90;;;;;;5070848;28;20795;-83
2022/05/11 00:51:34;;;;;;;12.63;4.03;;;14.00;99.90;;;;;;5052503;28;20196;-81
2022/05/11 00:54:04;;;;;;;14.07;4.93;;;14.10;99.90;;;;;;5049733;28;20198;-83
2022/05/11 00:56:32;;;;;;;13.37;4.13;;;14.10;99.90;;;;;;5051226;28;20198;-85
2022/05/11 00:59:05;;;;;;;8.70;3.87;;;14.20;99.90;;;;;;5069937;28;20268;-82
2022/05/11 01:01:33;;;;;;;13.77;4.23;;;14.20;99.90;;;;;;5067061;28;20209;-83
2022/05/11 01:04:04;;;;;;;10.77;4.03;;;14.20;99.90;;;;;;5050374;28;20205;-82
2022/05/11 01:06:32;;;;;;;8.97;3.83;;;14.20;99.90;;;;;;5054197;28;20304;-83
2022/05/11 01:09:01;;;;;;;11.10;4.23;;;14.20;99.90;;;;;;5070240;28;20643;-84
2022/05/11 01:11:29;;;;;;;13.80;4.20;;;14.20;99.90;;;;;;5056767;28;20221;-85
2022/05/11 01:13:57;;;;;;;14.47;4.33;;;14.20;99.90;;;;;;5050703;28;20232;-84
2022/05/11 01:16:25;;;;;;;13.93;4.47;;;14.10;99.90;;;;;;5050141;28;21121;-84
2022/05/11 01:18:52;;;;;;;11.73;3.97;;;14.20;99.90;;;;;;5050472;28;20206;-82
2022/05/11 01:21:21;;;;;;;16.13;4.17;;;14.10;99.90;;;;;;5051294;28;20225;-84
2022/05/11 01:23:53;;;;;;;13.83;4.10;;;14.10;99.90;;;;;;5067151;28;20236;-82
2022/05/11 01:26:21;;;;;;;16.73;5.23;;;14.20;99.90;;;;;;5070932;28;20212;-83
2022/05/11 01:28:54;;;;;;;9.17;4.10;;;14.20;99.90;;;;;;5070126;28;20205;-81
2022/05/11 01:31:21;;;;;;;14.47;4.63;;;14.30;99.90;;;;;;5070489;28;20526;-85
2022/05/11 01:33:50;;;;;;;11.33;4.60;;;14.20;99.90;;;;;;5063874;28;20236;-82
2022/05/11 01:36:25;;;;;;;11.00;3.83;;;14.30;99.90;;;;;;5049982;28;20213;-82
2022/05/11 01:38:55;;;;;;;16.73;4.17;;;14.30;99.90;;;;;;5049799;28;20233;-81
2022/05/11 01:41:28;;;;;;;13.93;4.33;;;14.20;99.90;;;;;;5058949;28;20228;-84
2022/05/11 01:43:55;;;;;;;10.17;4.17;;;14.20;99.90;;;;;;5069900;28;20383;-83
2022/05/11 01:46:22;;;;;;;13.50;4.10;;;14.20;99.90;;;;;;5070974;28;20205;-86
2022/05/11 01:48:50;;;;;;;13.40;4.27;;;14.20;99.90;;;;;;5070186;28;20197;-82
2022/05/11 01:51:18;;;;;;;13.60;4.30;;;14.20;99.90;;;;;;5070232;28;20186;-85
2022/05/11 01:53:47;;;;;;;12.27;3.60;;;14.20;99.90;;;;;;5061146;28;20208;-89
2022/05/11 01:56:14;;;;;;;15.27;4.60;;;14.20;99.90;;;;;;5050143;28;20652;-83
2022/05/11 01:58:42;;;;;;;13.23;4.40;;;14.30;99.90;;;;;;5049079;28;20230;-85
2022/05/11 02:01:09;;;;;;;12.33;4.37;;;14.30;99.90;;;;;;5047736;28;20229;-87
2022/05/11 02:03:36;;;;;;;13.30;4.30;;;14.30;99.90;;;;;;5047610;28;20619;-83
2022/05/11 02:08:48;;;;;;;12.47;3.90;;;14.30;99.90;;;;;;5047205;28;20484;-84
2022/05/11 02:11:16;;;;;;;13.63;4.10;;;14.30;99.90;;;;;;5050870;28;20210;-83
2022/05/11 02:13:45;;;;;;;10.57;4.20;;;14.20;99.90;;;;;;5049952;28;20209;-83
2022/05/11 02:16:12;;;;;;;19.10;4.63;;;14.20;99.90;;;;;;5050159;28;20221;-85
2022/05/11 02:18:39;;;;;;;13.00;4.10;;;14.20;99.90;;;;;;5052914;28;20209;-87
2022/05/11 02:21:07;;;;;;;8.67;3.17;;;14.20;99.90;;;;;;5061047;28;20315;-85
2022/05/11 02:23:35;;;;;;;14.00;4.17;;;14.20;99.90;;;;;;5070100;28;20204;-87
2022/05/11 02:26:02;;;;;;;13.17;3.97;;;14.20;99.90;;;;;;5069356;28;20212;-84
2022/05/11 02:28:29;;;;;;;18.00;4.53;;;14.20;99.90;;;;;;5071306;28;20231;-82
2022/05/11 02:30:58;;;;;;;15.97;4.00;;;14.20;99.90;;;;;;5070816;28;20209;-85
2022/05/11 02:33:26;;;;;;;11.80;3.70;;;14.20;99.90;;;;;;5051276;28;20642;-85
2022/05/11 02:35:54;;;;;;;14.27;3.47;;;14.20;99.90;;;;;;5051039;28;20204;-85
2022/05/11 02:38:22;;;;;;;15.80;4.30;;;14.20;99.90;;;;;;5057038;28;20209;-85
2022/05/11 02:40:51;;;;;;;14.97;3.27;;;14.10;99.90;;;;;;5069915;28;20272;-85
2022/05/11 02:43:18;;;;;;;15.07;3.90;;;14.10;99.90;;;;;;5071277;28;20205;-84
2022/05/11 02:45:46;;;;;;;17.40;4.57;;;14.10;99.90;;;;;;5071026;28;20201;-84
2022/05/11 02:48:16;;;;;;;16.53;4.17;;;14.10;99.90;;;;;;5061023;28;20202;-82
2022/05/11 02:50:45;;;;;;;12.60;3.77;;;14.10;99.90;;;;;;5050599;28;20198;-85
2022/05/11 02:53:12;;;;;;;18.60;4.40;;;14.10;99.90;;;;;;5050734;28;20567;-83
2022/05/11 02:55:41;;;;;;;16.50;4.57;;;14.00;99.90;;;;;;5052122;28;20228;-86
2022/05/11 02:58:08;;;;;;;19.20;3.53;;;14.10;99.90;;;;;;5069077;28;20252;-86
2022/05/11 03:00:36;;;;;;;11.13;3.83;;;14.00;99.90;;;;;;5059266;28;20535;-85
2022/05/11 03:03:04;;;;;;;17.67;4.03;;;14.00;99.90;;;;;;5049493;28;20206;-84
2022/05/11 03:05:32;;;;;;;12.20;3.67;;;14.00;99.90;;;;;;5050651;28;20212;-86
2022/05/11 03:07:59;;;;;;;12.30;4.00;;;14.10;99.90;;;;;;5059153;28;20748;-84
2022/05/11 03:10:26;;;;;;;13.67;3.60;;;14.00;99.90;;;;;;5070557;28;20200;-84
2022/05/11 03:12:53;;;;;;;14.00;3.57;;;14.00;99.90;;;;;;5069796;28;20637;-86
2022/05/11 03:15:21;;;;;;;19.30;4.07;;;14.00;99.90;;;;;;5070102;28;20228;-85
2022/05/11 03:17:47;;;;;;;21.20;4.57;;;14.00;99.90;;;;;;5069779;28;20308;-87
2022/05/11 03:20:14;;;;;;;13.37;3.73;;;14.10;99.90;;;;;;5069376;28;20233;-85
2022/05/11 03:22:43;;;;;;;14.07;4.30;;;14.10;99.90;;;;;;5054889;28;20213;-86
2022/05/11 03:25:10;;;;;;;12.63;3.23;;;14.10;99.90;;;;;;5049443;28;20586;-84
2022/05/11 03:27:37;;;;;;;13.73;3.97;;;14.00;99.90;;;;;;5069251;28;20220;-85
2022/05/11 03:30:05;;;;;;;19.47;4.00;;;14.00;99.90;;;;;;5064149;28;20209;-82
2022/05/11 03:35:17;;;;;;;14.00;3.67;;;14.00;99.90;;;;;;5049145;28;20224;-85
2022/05/11 03:37:45;;;;;;;13.00;3.80;;;14.00;99.90;;;;;;5045517;28;20209;-86
2022/05/11 03:40:13;;;;;;;13.43;3.63;;;14.00;99.90;;;;;;5047007;28;20225;-82
2022/05/11 03:42:41;;;;;;;10.60;4.17;;;13.90;99.90;;;;;;5057780;28;20375;-85
2022/05/11 03:45:10;;;;;;;11.37;3.87;;;13.90;99.90;;;;;;5066265;28;20284;-82
2022/05/11 03:47:37;;;;;;;17.47;4.10;;;13.90;99.90;;;;;;5047552;28;20198;-84
2022/05/11 03:50:07;;;;;;;16.13;3.97;;;13.90;99.90;;;;;;5046628;28;20194;-82
2022/05/11 03:52:34;;;;;;;17.30;4.40;;;13.90;99.90;;;;;;5047581;28;20208;-86
2022/05/11 03:55:04;;;;;;;12.80;4.03;;;13.90;99.90;;;;;;5047200;28;20216;-85
2022/05/11 03:57:32;;;;;;;14.40;4.17;;;14.00;99.90;;;;;;5046613;28;20217;-85
2022/05/11 03:59:59;;;;;;;18.07;4.33;;;13.90;99.90;;;;;;5046087;28;20206;-83
2022/05/11 04:02:25;;;;;;;12.23;3.43;;;13.90;99.90;;;;;;5047936;28;20748;-85
2022/05/11 04:04:52;;;;;;;15.40;3.67;;;13.90;99.90;;;;;;5046590;28;20209;-82
2022/05/11 04:07:19;;;;;;;18.07;4.83;;;13.90;99.90;;;;;;5047177;28;20208;-84
2022/05/11 04:09:45;;;;;;;12.83;3.90;;;13.90;99.90;;;;;;5048909;28;20232;-85
2022/05/11 04:12:15;;;;;;;17.00;4.43;;;13.80;99.90;;;;;;5047540;28;20209;-85
2022/05/11 04:14:42;;;;;;;13.60;3.73;;;13.90;99.90;;;;;;5046646;28;20213;-82
2022/05/11 04:17:09;;;;;;;15.10;3.87;;;13.80;99.90;;;;;;5046404;28;20230;-83
2022/05/11 04:19:37;;;;;;;15.03;3.60;;;13.80;99.90;;;;;;5044192;28;20216;-86
2022/05/11 04:22:04;;;;;;;12.23;2.97;;;13.90;99.90;;;;;;5045242;28;20236;-85
2022/05/11 04:24:30;;;;;;;11.70;3.67;;;13.90;99.90;;;;;;5046310;28;20297;-81
2022/05/11 04:26:58;;;;;;;10.33;3.30;;;13.80;99.90;;;;;;5044877;28;20844;-83
2022/05/11 04:29:26;;;;;;;19.37;4.70;;;13.90;99.90;;;;;;5045733;28;20210;-82
2022/05/11 04:31:54;;;;;;;25.23;4.57;;;13.90;99.90;;;;;;5045252;28;20206;-81
2022/05/11 04:34:21;;;;;;;15.73;3.57;;;13.80;99.90;;;;;;5045366;28;20206;-84
2022/05/11 04:36:48;;;;;;;16.60;3.80;;;13.80;99.90;;;;;;5045166;28;20221;-84
2022/05/11 04:39:15;;;;;;;15.13;4.00;;;13.90;99.90;;;;;;5045780;28;20499;-84
2022/05/11 04:41:41;;;;;;;19.27;4.43;;;13.90;99.90;;;;;;5044804;28;20230;-83
2022/05/11 04:44:09;;;;;;;11.00;3.00;;;13.90;99.90;;;;;;5045848;28;20225;-82
2022/05/11 04:46:38;;;;;;;15.10;4.80;;;13.90;99.90;;;;;;5048205;28;20205;-82
2022/05/11 04:49:19;;;;;;;12.27;3.57;;;13.90;99.90;;;;;;5065918;28;20205;-81
2022/05/11 04:51:46;;;;;;;14.03;3.60;;;13.90;99.90;;;;;;5069300;28;20248;-83
2022/05/11 04:54:12;;;;;;;11.93;3.80;;;14.00;99.90;;;;;;5069497;28;20205;-83
2022/05/11 04:56:39;;;;;;;13.00;3.23;;;14.00;99.90;;;;;;5068648;28;20208;-82
2022/05/11 04:59:07;;;;;;;17.27;4.30;;;13.90;99.90;;;;;;5069393;28;20521;-84
2022/05/11 05:01:35;;;;;;;13.73;4.33;;;14.00;99.90;;;;;;5064810;28;20656;-84
2022/05/11 05:04:04;;;;;;;15.63;4.87;;;14.00;99.90;;;;;;5048309;28;20876;-83
2022/05/11 05:06:32;;;;;;;16.73;4.13;;;14.00;99.90;;;;;;5053357;28;20649;-82
2022/05/11 05:09:00;;;;;;;13.60;4.13;;;14.00;99.90;;;;;;5049202;28;20190;-81
2022/05/11 05:11:27;;;;;;;12.27;3.63;;;13.90;99.90;;;;;;5048857;28;20937;-83
2022/05/11 05:13:54;;;;;;;10.50;3.37;;;14.00;99.90;;;;;;5051281;28;20217;-84
2022/05/11 05:16:21;;;;;;;13.60;3.67;;;14.00;99.90;;;;;;5052101;28;20241;-84
2022/05/11 05:18:47;;;;;;;16.23;4.10;;;14.00;99.90;;;;;;5051709;28;20209;-86
2022/05/11 05:21:15;;;;;;;12.40;3.90;;;14.10;99.90;;;;;;5051259;28;20222;-84
2022/05/11 05:23:43;;;;;;;14.67;4.23;;;14.10;99.90;;;;;;5053524;28;20205;-88
2022/05/11 05:26:09;;;;;;;17.60;4.10;;;14.10;99.90;;;;;;5053345;28;20210;-87
2022/05/11 05:31:22;;;;;;;17.80;4.37;;;14.10;99.90;;;;;;5052293;28;20181;-85
2022/05/11 05:33:49;;;;;;;14.53;4.57;;;14.20;99.90;;;;;;5052265;28;20821;-87
2022/05/11 05:36:17;;;;;;;14.10;4.03;;;14.20;99.90;;;;;;5050976;28;20202;-85
2022/05/11 05:38:44;;;;;;;12.50;3.73;;;14.30;99.90;;;;;;5064753;28;20213;-87
2022/05/11 05:41:12;;;;;;;16.33;4.57;;;14.40;99.90;;;;;;5071604;28;20494;-87
2022/05/11 05:43:39;;;;;;;12.87;4.57;;;14.50;99.90;;;;;;5072148;28;20468;-91
2022/05/11 05:46:06;;;;;;;17.70;5.00;;;14.60;99.90;;;;;;5071851;28;20202;-87
2022/05/11 05:48:33;;;;;;;15.30;4.17;;;14.60;99.90;;;;;;5072233;28;20201;-86
2022/05/11 05:51:05;;;;;;;15.13;4.23;;;14.70;99.90;;;;;;5071119;28;20197;-83
2022/05/11 05:53:34;;;;;;;14.13;4.07;;;14.70;99.90;;;;;;5062174;28;20281;-86
2022/05/11 05:56:01;;;;;;;18.17;4.67;;;14.70;99.90;;;;;;5052050;28;20199;-83
2022/05/11 05:58:28;;;;;;;14.93;3.53;;;14.70;99.90;;;;;;5051868;28;20233;-86
2022/05/11 06:00:55;;;;;;;14.57;4.47;;;14.70;99.90;;;;;;5049472;28;20336;-84
2022/05/11 06:03:25;;;;;;;16.80;4.13;;;14.70;99.90;;;;;;5050835;28;20586;-85
2022/05/11 06:05:52;;;;;;;14.07;4.03;;;14.80;99.90;;;;;;5052017;28;20202;-86
2022/05/11 06:08:20;;;;;;;16.17;4.40;;;14.80;99.90;;;;;;5050161;28;20486;-82
2022/05/11 06:10:49;;;;;;;16.90;4.47;;;14.80;99.90;;;;;;5047889;28;20289;-83
2022/05/11 06:13:20;;;;;;;14.93;3.80;;;14.80;99.90;;;;;;5048897;28;20205;-82
2022/05/11 06:15:47;;;;;;;20.87;4.03;;;14.90;99.90;;;;;;5047776;28;20344;-85
2022/05/11 06:18:14;;;;;;;16.80;4.53;;;14.90;99.90;;;;;;5049271;28;20765;-84
2022/05/11 06:20:41;;;;;;;12.88;3.92;;;14.90;99.90;;;;;;5049345;28;20202;-84
2022/05/11 06:23:08;;;;;;;17.58;4.10;;;15.00;99.90;;;;;;5048521;28;20213;-82
2022/05/11 06:25:38;;;;;;;18.70;4.35;;;15.10;99.90;;;;;;5048301;28;20213;-82
2022/05/11 06:28:08;;;;;;;17.37;4.37;;;15.10;99.90;;;;;;5047329;28;20221;-82
2022/05/11 06:30:35;;;;;;;14.57;4.07;;;15.20;99.90;;;;;;5051342;28;20216;-87
2022/05/11 06:33:03;;;;;;;18.67;4.50;;;15.30;99.90;;;;;;5066880;28;20204;-85
2022/05/11 06:35:30;;;;;;;17.67;4.60;;;15.40;99.90;;;;;;5067240;28;20198;-83
2022/05/11 06:38:02;;;;;;;15.23;3.70;;;15.60;99.90;;;;;;5049208;28;20293;-87
2022/05/11 06:40:29;;;;;;;12.03;3.80;;;15.70;99.90;;;;;;5047978;28;20202;-83
2022/05/11 06:42:55;;;;;;;13.60;3.47;;;15.80;99.90;;;;;;5059412;28;20228;-83
2022/05/11 06:45:24;;;;;;;13.87;4.27;;;15.80;99.90;;;;;;5062722;28;20270;-82
2022/05/11 06:47:53;;;;;;;13.57;4.30;;;15.90;99.90;;;;;;5046132;28;20197;-82
2022/05/11 06:50:20;;;;;;;21.58;5.10;;;15.90;99.90;;;;;;5047758;28;20209;-86
2022/05/11 06:52:47;;;;;;;14.48;4.38;;;16.00;99.90;;;;;;5047160;28;20649;-83
2022/05/11 07:00:45;;;;;;;16.80;3.83;;;16.90;99.90;;;;;;5045687;28;20239;-83
2022/05/11 07:03:13;;;;;;;13.10;3.67;;;17.40;99.90;;;;;;5052691;28;20309;-88
2022/05/11 07:05:41;;;;;;;15.60;4.03;;;17.50;99.90;;;;;;5010658;28;20213;-84
2022/05/11 07:08:09;;;;;;;14.02;3.85;;;17.70;99.90;;;;;;5059156;28;20794;-84
2022/05/11 07:10:37;;;;;;;13.50;3.90;;;18.00;99.90;;;;;;5045611;28;20220;-84
2022/05/11 07:13:04;;;;;;;14.52;3.53;;;18.00;99.90;;;;;;5059198;28;20213;-83
2022/05/11 07:15:31;;;;;;;15.00;3.60;;;18.00;99.90;;;;;;5051453;28;20230;-80
2022/05/11 07:18:01;;;;;;;16.85;3.80;;;17.90;99.90;;;;;;5049076;28;20232;-85
2022/05/11 07:20:33;;;;;;;11.48;3.78;;;17.80;99.90;;;;;;5054233;28;20294;-82
2022/05/11 07:23:02;;;;;;;18.15;3.88;;;17.70;99.90;;;;;;5053589;28;20233;-81
2022/05/11 07:25:30;;;;;;;18.30;3.85;;;17.60;99.90;;;;;;5047181;28;20214;-81
2022/05/11 07:27:59;;;;;;;15.80;3.92;;;17.50;99.90;;;;;;5047947;28;20244;-86
2022/05/11 07:30:30;;;;;;;14.48;3.60;;;17.50;99.90;;;;;;5052517;28;20217;-80
2022/05/11 07:32:58;;;;;;;16.20;3.85;;;17.50;99.90;;;;;;5051284;28;20307;-81
2022/05/11 07:35:25;;;;;;;15.32;3.75;;;17.70;99.90;;;;;;5061801;28;20898;-84
2022/05/11 07:37:54;;;;;;;17.40;3.17;;;17.90;99.90;;;;;;5050542;28;20222;-86
2022/05/11 07:40:23;;;;;;;17.50;4.25;;;18.00;99.90;;;;;;5038559;28;20922;-85
2022/05/11 07:42:51;;;;;;;17.80;4.20;;;18.10;99.90;;;;;;5050794;28;20265;-83
2022/05/11 07:45:18;;;;;;;14.68;3.17;;;18.10;99.90;;;;;;5054772;28;20206;-86
2022/05/11 07:47:45;;;;;;;15.45;3.78;;;17.90;99.90;;;;;;5049278;28;20217;-89
2022/05/11 07:50:15;;;;;;;14.25;3.90;;;18.00;99.90;;;;;;5049183;28;20217;-84
2022/05/11 07:52:42;;;;;;;16.17;3.88;;;18.40;99.90;;;;;;5058169;28;20213;-83
2022/05/11 07:55:09;;;;;;;14.93;3.95;;;18.60;99.90;;;;;;5059939;28;20217;-83
2022/05/11 08:00:21;;;;;;;13.15;3.90;;;18.70;99.90;;;;;;5056374;28;20216;-85
2022/05/11 08:02:47;;;;;;;13.98;3.60;;;18.70;99.90;;;;;;5052848;22;20241;-85
2022/05/11 08:05:18;;;;;;;19.63;4.68;;;18.80;99.90;;;;;;5035121;28;20218;-84
2022/05/11 08:07:47;;;;;;;16.25;4.00;;;19.00;99.90;;;;;;5037470;28;20515;-83
2022/05/11 08:10:16;;;;;;;13.13;4.22;;;19.10;99.90;;;;;;5036242;28;20230;-85
2022/05/11 08:12:43;;;;;;;12.68;4.38;;;19.10;99.90;;;;;;5038191;28;20926;-82
2022/05/11 08:15:11;;;;;;;12.57;3.78;;;19.00;99.90;;;;;;5031092;28;20224;-84
2022/05/11 08:17:38;;;;;;;15.82;4.10;;;18.90;99.90;;;;;;5034616;28;20217;-84
2022/05/11 08:20:10;;;;;;;14.55;4.10;;;18.80;99.90;;;;;;5042121;28;20202;-82
2022/05/11 08:22:38;;;;;;;15.18;4.07;;;18.60;99.90;;;;;;5036924;28;20230;-81
2022/05/11 08:25:06;;;;;;;17.73;4.15;;;18.50;99.90;;;;;;5043080;28;20214;-83
2022/05/11 08:27:33;;;;;;;17.13;4.10;;;18.50;99.90;;;;;;5046785;28;20221;-84
2022/05/11 08:35:29;;;;;;;18.38;4.50;;;18.50;99.90;;;;;;5046145;28;20233;-82
2022/05/11 08:37:57;;;;;;;15.85;4.40;;;18.60;99.90;;;;;;5043131;28;20209;-82
2022/05/11 08:40:31;;;;;;;16.42;4.82;;;18.70;99.90;;;;;;5042308;28;20211;-84
2022/05/11 08:43:02;;;;;;;16.80;4.65;;;18.70;99.90;;;;;;5040274;28;20823;-88
2022/05/11 08:45:37;;;;;;;14.65;4.47;;;18.50;99.90;;;;;;5038645;28;20222;-84
2022/05/11 08:48:09;;;;;;;16.90;4.30;;;18.50;99.90;;;;;;5043541;28;20213;-85
2022/05/11 08:50:40;;;;;;;25.17;5.20;;;18.60;99.90;;;;;;5048670;28;20213;-84
2022/05/11 08:53:34;;;;;;;16.70;4.28;;;18.50;99.90;;;;;;5047572;28;20209;-83
2022/05/11 08:56:07;;;;;;;19.77;4.97;;;18.60;99.90;;;;;;5047107;28;20218;-85
2022/05/11 08:58:39;;;;;;;18.83;4.60;;;18.80;99.90;;;;;;5046891;28;20217;-83
2022/05/11 09:01:12;;;;;;;21.70;6.05;;;18.80;99.90;;;;;;5044815;28;20210;-84
2022/05/11 09:03:45;;;;;;;18.55;5.13;;;19.00;99.90;;;;;;5043591;28;20253;-84
2022/05/11 09:06:17;;;;;;;14.65;4.40;;;18.90;99.90;;;;;;5032684;28;20213;-83
2022/05/11 09:08:45;;;;;;;18.80;4.93;;;18.80;99.90;;;;;;5039552;28;20218;-82
2022/05/11 09:11:14;;;;;;;17.80;4.60;;;18.80;99.90;;;;;;5040746;28;20210;-83
2022/05/11 09:13:44;;;;;;;17.95;4.78;;;18.80;99.90;;;;;;5045860;28;20217;-83
2022/05/11 09:16:20;;;;;;;18.45;4.82;;;18.80;99.90;;;;;;5041559;28;20230;-82
2022/05/11 09:18:47;;;;;;;22.05;4.80;;;18.60;99.90;;;;;;5033299;28;20902;-85
2022/05/11 09:21:24;;;;;;;16.83;4.50;;;18.70;99.90;;;;;;5047247;28;20221;-83
2022/05/11 09:24:13;;;;;;;16.27;4.72;;;18.70;99.90;;;;;;5039958;28;20218;-84
2022/05/11 09:26:44;;;;;;;22.98;4.68;;;18.90;99.90;;;;;;5043013;28;20213;-83
2022/05/11 09:29:20;;;;;;;21.38;5.85;;;19.10;99.90;;;;;;5042892;28;20406;-81
2022/05/11 09:31:51;;;;;;;17.02;5.30;;;19.20;99.90;;;;;;5038181;28;20217;-82
2022/05/11 09:34:26;;;;;;;15.27;3.50;;;19.20;99.90;;;;;;5030640;28;20302;-80
2022/05/11 09:36:57;;;;;;;23.13;4.93;;;19.10;99.90;;;;;;5044432;28;20220;-85
2022/05/11 09:39:28;;;;;;;15.93;4.32;;;19.10;99.90;;;;;;5048535;28;20209;-85
2022/05/11 09:42:01;;;;;;;18.33;4.70;;;19.00;99.90;;;;;;5045638;28;20240;-86
2022/05/11 09:44:42;;;;;;;20.02;4.95;;;19.00;99.90;;;;;;5048679;28;20225;-82
2022/05/11 09:47:27;;;;;;;25.50;6.00;;;19.00;99.90;;;;;;5048038;28;20263;-85
2022/05/11 09:49:53;;;;;;;22.58;5.32;;;19.10;99.90;;;;;;5048155;28;20213;-86
2022/05/11 09:52:34;;;;;;;14.77;4.65;;;19.10;99.90;;;;;;5048285;28;20305;-84
2022/05/11 09:55:13;;;;;;;25.65;5.30;;;19.10;99.90;;;;;;5035934;28;20221;-86
2022/05/11 09:57:40;;;;;;;18.58;5.30;;;18.90;99.90;;;;;;5040946;28;20428;-79
2022/05/11 10:00:19;;;;;;;17.00;5.35;;;18.80;99.90;;;;;;5025782;28;20213;-81
2022/05/11 10:02:50;;;;;;;21.55;5.05;;;18.80;99.90;;;;;;5026903;28;20254;-84
2022/05/11 10:05:21;;;;;;;17.23;5.07;;;18.70;99.90;;;;;;5027534;28;20203;-81
2022/05/11 10:07:53;;;;;;;23.05;4.82;;;18.70;99.90;;;;;;5027429;28;20267;-84
2022/05/11 10:10:27;;;;;;;18.15;4.97;;;18.80;99.90;;;;;;5029391;28;20199;-90
2022/05/11 10:12:57;;;;;;;16.75;4.70;;;19.10;99.90;;;;;;5031626;28;20555;-89
2022/05/11 10:24:13;;;;;;;14.77;4.60;;;19.60;99.90;;;;;;5051580;28;20672;-85
2022/05/11 10:26:54;;;;;;;17.45;3.83;;;19.70;99.90;;;;;;5051677;28;20206;-85
2022/05/11 10:29:50;;;;;;;15.32;4.55;;;19.60;99.90;;;;;;5053030;28;20202;-86
2022/05/11 10:32:25;;;;;;;18.00;4.57;;;19.60;99.90;;;;;;5053313;28;20197;-88
2022/05/11 10:35:02;;;;;;;18.55;5.10;;;19.70;99.90;;;;;;5055869;28;20209;-86
2022/05/11 10:37:36;;;;;;;22.60;5.32;;;19.90;99.90;;;;;;5057685;28;20181;-90
2022/05/11 10:40:15;;;;;;;14.85;4.20;;;20.10;99.90;;;;;;5057391;28;20658;-83
2022/05/11 10:42:54;;;;;;;16.08;4.38;;;20.30;99.90;;;;;;5054669;28;20308;-83
2022/05/11 10:45:22;;;;;;;15.60;5.05;;;20.20;99.90;;;;;;5045066;28;20221;-82
2022/05/11 10:48:04;;;;;;;17.35;4.50;;;20.30;99.90;;;;;;5035331;28;20719;-83
2022/05/11 10:50:44;;;;;;;17.55;4.65;;;20.40;99.90;;;;;;5053393;28;20601;-81
2022/05/11 10:53:26;;;;;;;20.17;5.13;;;20.50;99.90;;;;;;5053779;28;20202;-81
2022/05/11 10:56:13;;;;;;;17.00;4.85;;;20.70;99.90;;;;;;5037571;28;20187;-83
2022/05/11 10:59:15;;;;;;;17.75;5.22;;;20.80;99.90;;;;;;5032025;28;20206;-86
2022/05/11 11:01:51;;;;;;;22.45;6.30;;;20.90;99.90;;;;;;5031239;28;20206;-83
2022/05/11 11:04:31;;;;;;;18.70;5.05;;;21.10;99.90;;;;;;5026563;28;20246;-80
2022/05/11 11:07:13;;;;;;;15.95;5.20;;;21.30;99.90;;;;;;5025980;28;20209;-81
2022/05/11 11:09:52;;;;;;;16.13;3.95;;;21.50;99.90;;;;;;5028058;28;20203;-82
2022/05/11 11:12:36;;;;;;;14.88;3.92;;;21.70;99.90;;;;;;5030703;28;20199;-81
2022/05/11 11:15:11;;;;;;;17.65;4.28;;;21.70;99.90;;;;;;5027232;28;20191;-83
2022/05/11 11:17:38;;;;;;;17.38;4.57;;;21.60;99.90;;;;;;5027617;28;20201;-81
2022/05/11 11:20:08;;;;;;;14.68;4.18;;;21.50;99.90;;;;;;5026414;28;20210;-81
2022/05/11 11:23:04;;;;;;;14.00;3.92;;;21.60;99.90;;;;;;5025431;28;20230;-84
2022/05/11 11:25:51;;;;;;;17.75;4.88;;;21.60;99.90;;;;;;5025323;28;20209;-81
2022/05/11 11:28:20;;;;;;;14.63;4.63;;;21.50;99.90;;;;;;5024820;28;20209;-84
2022/05/11 11:31:19;;;;;;;14.07;3.40;;;21.60;99.90;;;;;;5059526;22;20297;-85
2022/05/11 11:34:18;;;;;;;13.77;4.40;;;21.60;99.90;;;;;;5065582;28;20266;-82
2022/05/11 11:36:45;;;;;;;13.43;4.35;;;21.50;99.90;;;;;;5061228;28;20205;-81
2022/05/11 11:39:33;;;;;;;15.15;4.65;;;21.50;99.90;;;;;;5044997;28;20202;-83
2022/05/11 11:42:07;;;;;;;18.15;4.82;;;21.60;99.90;;;;;;5044205;28;20208;-81
2022/05/11 11:44:40;;;;;;;17.20;5.03;;;21.50;99.90;;;;;;5044433;28;20491;-82
2022/05/11 11:47:35;;;;;;;19.42;4.60;;;21.50;99.90;;;;;;5062305;28;20205;-83
2022/05/11 11:50:04;;;;;;;15.77;4.63;;;21.60;99.90;;;;;;5057127;28;20504;-84
2022/05/11 11:52:36;;;;;;;20.63;4.25;;;21.70;99.90;;;;;;5065793;28;20205;-83
2022/05/11 11:55:09;;;;;;;12.85;3.80;;;21.70;99.90;;;;;;5065190;28;20220;-86
2022/05/11 11:57:37;;;;;;;13.73;3.75;;;21.60;99.90;;;;;;5065872;28;20498;-88
2022/05/11 12:00:27;;;;;;;14.63;3.10;;;21.80;99.90;;;;;;5069854;28;20212;-83
2022/05/11 12:02:56;;;;;;;15.48;4.22;;;21.80;99.90;;;;;;5068119;28;20236;-87
2022/05/11 12:05:27;;;;;;;18.13;4.03;;;21.90;99.90;;;;;;5069386;28;20205;-89
2022/05/11 12:16:26;;;;;;;14.20;3.83;;;21.70;99.90;;;;;;5069835;28;20509;-81
2022/05/11 12:19:08;;;;;;;16.60;4.05;;;21.90;99.90;;;;;;5070520;28;20216;-88
2022/05/11 12:21:37;;;;;;;14.43;3.45;;;21.90;99.90;;;;;;5069074;28;20302;-84
2022/05/11 12:24:07;;;;;;;16.77;4.75;;;22.00;99.90;;;;;;5070330;28;20225;-82
2022/05/11 12:26:37;;;;;;;11.88;3.63;;;22.10;99.90;;;;;;5071186;28;20198;-85
2022/05/11 12:31:54;;;;;;;12.57;3.95;;;21.90;99.90;;;;;;5068409;28;20585;-87
2022/05/11 12:34:24;;;;;;;12.23;3.28;;;21.80;99.90;;;;;;5064147;28;20206;-83
2022/05/11 12:36:53;;;;;;;11.38;3.03;;;21.60;99.90;;;;;;5050556;28;20216;-86
2022/05/11 12:39:30;;;;;;;9.88;3.33;;;21.50;99.90;;;;;;5066240;28;20300;-82
2022/05/11 12:41:57;;;;;;;9.18;3.15;;;21.40;99.90;;;;;;5067418;28;20208;-85
2022/05/11 12:44:28;;;;;;;8.30;3.22;;;21.40;99.90;;;;;;5068174;28;20312;-85
2022/05/11 12:46:56;;;;;;;11.50;2.92;;;21.40;99.90;;;;;;5066659;28;20324;-83
2022/05/11 12:49:26;;;;;;;10.32;2.65;;;21.50;99.90;;;;;;5066406;28;20470;-83
2022/05/11 12:51:55;;;;;;;12.02;2.50;;;21.30;99.90;;;;;;5069787;28;20851;-84
2022/05/11 12:54:25;;;;;;;10.02;2.45;;;21.10;99.90;;;;;;5067715;28;20609;-88
2022/05/11 12:56:58;;;;;;;15.48;2.72;;;21.10;99.90;;;;;;5072748;28;20211;-88
2022/05/11 12:59:27;;;;;;;15.80;3.33;;;21.20;99.90;;;;;;5069041;28;20205;-84
2022/05/11 13:02:14;;;;;;;11.35;3.17;;;21.10;99.90;;;;;;5069291;28;20287;-86
2022/05/11 13:04:51;;;;;;;11.05;2.85;;;21.20;99.90;;;;;;5067985;28;20224;-80
2022/05/11 13:07:22;;;;;;;11.35;3.17;;;21.10;99.90;;;;;;5047618;28;20229;-82
2022/05/11 13:09:52;;;;;;;13.75;2.65;;;21.20;99.90;;;;;;5050577;28;20288;-82
2022/05/11 13:12:19;;;;;;;13.88;2.58;;;21.30;99.90;;;;;;5046546;28;20194;-82
2022/05/11 13:14:51;;;;;;;8.02;2.10;;;21.40;99.90;;;;;;5047728;28;20198;-83
2022/05/11 13:17:21;;;;;;;12.45;2.60;;;21.20;99.90;;;;;;5067610;28;20205;-81
2022/05/11 13:19:56;;;;;;;9.73;2.65;;;21.10;99.90;;;;;;5066231;28;20209;-82
2022/05/11 13:22:25;;;;;;;8.52;2.63;;;20.90;99.90;;;;;;5065343;28;20597;-83
2022/05/11 13:24:54;;;;;;;12.55;3.10;;;20.80;99.90;;;;;;5066956;28;20304;-81
2022/05/11 13:27:37;;;;;;;8.82;2.03;;;20.70;99.90;;;;;;5065362;28;20504;-82
2022/05/11 13:30:10;;;;;;;9.27;2.83;;;20.80;99.90;;;;;;5064305;28;20228;-80
2022/05/11 13:32:39;;;;;;;13.20;3.22;;;20.60;99.90;;;;;;5064640;28;20613;-83
2022/05/11 13:35:19;;;;;;;16.17;3.72;;;20.50;99.90;;;;;;5052269;28;20224;-81
2022/05/11 13:37:55;;;;;;;9.32;2.45;;;20.30;99.90;;;;;;5064316;28;20609;-80
2022/05/11 13:40:28;;;;;;;13.82;3.35;;;20.20;99.90;;;;;;5065935;28;20586;-79